Time;durP1;ratioP1;P1;durP2;ratioP2;P2;SDS_P1;SDS_P2;PMS_P1;PMS_P2;Temp;Humidity;BMP_temperature;BMP_pressure;BME280_temperature;BME280_humidity;BME280_pressure;Samples;Min_cycle;Max_cycle;Signal;HPM_P1;HPM_P2
2022/10/07 00:00:52;;;;;;;19.20;2.55;;;;;;;;;;5080387;28;20052;-72
2022/10/07 00:03:21;;;;;;;21.15;2.67;;;;;;;;;;5080324;28;20055;-72
2022/10/07 00:05:48;;;;;;;17.83;2.72;;;;;;;;;;5078361;28;20051;-72
2022/10/07 00:08:16;;;;;;;19.35;2.85;;;;;;;;;;5077643;28;20058;-72
2022/10/07 00:10:43;;;;;;;20.48;3.20;;;;;;;;;;5078181;28;20066;-72
2022/10/07 00:13:11;;;;;;;15.52;2.78;;;;;;;;;;5078995;28;20077;-72
2022/10/07 00:15:39;;;;;;;12.45;2.42;;;;;;;;;;5077326;28;20044;-72
2022/10/07 00:18:06;;;;;;;17.33;3.33;;;;;;;;;;5079196;28;20044;-72
2022/10/07 00:20:38;;;;;;;15.88;2.30;;;;;;;;;;5078937;28;20044;-72
2022/10/07 00:23:06;;;;;;;18.23;2.28;;;;;;;;;;5080369;28;20059;-72
2022/10/07 00:25:36;;;;;;;27.02;3.03;;;;;;;;;;5078300;28;20044;-72
2022/10/07 00:28:03;;;;;;;18.60;2.50;;;;;;;;;;5062468;28;20047;-72
2022/10/07 00:30:30;;;;;;;15.50;2.85;;;;;;;;;;5058295;28;20051;-72
2022/10/07 00:32:58;;;;;;;18.25;2.42;;;;;;;;;;5079216;28;20040;-72
2022/10/07 00:35:25;;;;;;;16.27;2.40;;;;;;;;;;5074442;28;20056;-72
2022/10/07 00:37:54;;;;;;;23.20;2.65;;;;;;;;;;5080167;28;20514;-72
2022/10/07 00:40:21;;;;;;;15.30;2.45;;;;;;;;;;5080408;28;20059;-72
2022/10/07 00:42:48;;;;;;;24.13;2.97;;;;;;;;;;5061241;28;20192;-72
2022/10/07 00:45:16;;;;;;;19.58;2.50;;;;;;;;;;5073140;28;20569;-72
2022/10/07 00:47:45;;;;;;;16.70;2.20;;;;;;;;;;5060084;28;20531;-72
2022/10/07 00:50:14;;;;;;;15.20;2.35;;;;;;;;;;5079381;28;20048;-72
2022/10/07 00:52:43;;;;;;;23.13;2.97;;;;;;;;;;5062227;28;20051;-72
2022/10/07 00:55:14;;;;;;;25.33;3.20;;;;;;;;;;5080101;28;20735;-72
2022/10/07 00:57:41;;;;;;;20.50;2.97;;;;;;;;;;5077525;28;20043;-72
2022/10/07 01:00:09;;;;;;;23.73;2.70;;;;;;;;;;5077799;28;20089;-72
2022/10/07 01:02:37;;;;;;;19.48;2.63;;;;;;;;;;5078372;28;20764;-72
2022/10/07 01:05:05;;;;;;;21.35;2.53;;;;;;;;;;5079752;28;20423;-72
2022/10/07 01:07:32;;;;;;;18.77;2.67;;;;;;;;;;5079230;28;20052;-72
2022/10/07 01:10:00;;;;;;;20.35;2.50;;;;;;;;;;5080774;28;20738;-72
2022/10/07 01:12:35;;;;;;;16.88;2.30;;;;;;;;;;5082538;28;20052;-72
2022/10/07 01:15:07;;;;;;;17.90;2.58;;;;;;;;;;5081838;28;20048;-72
2022/10/07 01:17:38;;;;;;;17.52;2.20;;;;;;;;;;5080399;28;20075;-72
2022/10/07 01:20:26;;;;;;;25.88;2.95;;;;;;;;;;5083280;28;20158;-72
2022/10/07 01:23:01;;;;;;;22.55;2.50;;;;;;;;;;5073516;28;20047;-72
2022/10/07 01:25:32;;;;;;;22.75;2.85;;;;;;;;;;5077582;28;20055;-72
2022/10/07 01:28:04;;;;;;;16.95;2.45;;;;;;;;;;5080650;28;20052;-72
2022/10/07 01:30:32;;;;;;;30.58;4.05;;;;;;;;;;5080315;28;20051;-72
2022/10/07 01:33:03;;;;;;;12.68;2.05;;;;;;;;;;5080078;28;20056;-72
2022/10/07 01:35:34;;;;;;;18.08;2.80;;;;;;;;;;5078920;28;20056;-72
2022/10/07 01:38:04;;;;;;;25.02;2.35;;;;;;;;;;5075486;28;20059;-72
2022/10/07 01:40:33;;;;;;;18.42;2.83;;;;;;;;;;5060231;28;20243;-72
2022/10/07 01:43:02;;;;;;;16.13;2.40;;;;;;;;;;5063733;28;20105;-72
2022/10/07 01:45:31;;;;;;;18.45;2.63;;;;;;;;;;5081503;28;20055;-72
2022/10/07 01:47:59;;;;;;;20.20;2.40;;;;;;;;;;5081198;28;20124;-72
2022/10/07 01:50:28;;;;;;;16.35;2.70;;;;;;;;;;5064951;28;20113;-72
2022/10/07 01:53:04;;;;;;;23.02;2.78;;;;;;;;;;5083147;28;20040;-72
2022/10/07 01:55:51;;;;;;;25.63;3.03;;;;;;;;;;5064871;28;20093;-72
2022/10/07 01:58:28;;;;;;;21.55;2.92;;;;;;;;;;5078815;28;20048;-72
2022/10/07 02:01:00;;;;;;;18.95;2.58;;;;;;;;;;5076797;28;20051;-72
2022/10/07 02:03:38;;;;;;;14.35;2.45;;;;;;;;;;5080459;28;20048;-72
2022/10/07 02:06:11;;;;;;;21.67;2.75;;;;;;;;;;5078687;28;20434;-72
2022/10/07 02:08:41;;;;;;;16.77;2.28;;;;;;;;;;5079050;28;20067;-72
2022/10/07 02:11:12;;;;;;;20.05;2.53;;;;;;;;;;5079680;28;20051;-72
2022/10/07 02:13:43;;;;;;;20.13;2.85;;;;;;;;;;5080328;28;20054;-72
2022/10/07 02:16:15;;;;;;;21.58;2.92;;;;;;;;;;5065998;28;20047;-72
2022/10/07 02:18:47;;;;;;;28.50;3.10;;;;;;;;;;5078032;28;20080;-72
2022/10/07 02:21:16;;;;;;;26.00;3.15;;;;;;;;;;5083452;28;20044;-72
2022/10/07 02:23:45;;;;;;;18.10;3.05;;;;;;;;;;5081367;28;20078;-72
2022/10/07 02:26:14;;;;;;;21.13;2.47;;;;;;;;;;5080925;28;20052;-72
2022/10/07 02:28:44;;;;;;;16.83;2.65;;;;;;;;;;5077712;28;20051;-72
2022/10/07 02:31:13;;;;;;;19.27;2.80;;;;;;;;;;5081949;28;20474;-72
2022/10/07 02:33:42;;;;;;;17.95;2.63;;;;;;;;;;5081027;28;20055;-72
2022/10/07 02:36:11;;;;;;;22.85;3.33;;;;;;;;;;5081414;28;20043;-72
2022/10/07 02:38:39;;;;;;;18.70;2.70;;;;;;;;;;5078519;28;20117;-72
2022/10/07 02:41:10;;;;;;;19.05;3.00;;;;;;;;;;5083478;28;20047;-72
2022/10/07 02:43:40;;;;;;;25.50;3.15;;;;;;;;;;5082185;28;20098;-72
2022/10/07 02:46:11;;;;;;;28.15;3.78;;;;;;;;;;5082902;28;20631;-72
2022/10/07 02:48:40;;;;;;;20.95;3.25;;;;;;;;;;5082336;28;20044;-72
2022/10/07 02:51:10;;;;;;;19.30;3.75;;;;;;;;;;5081011;28;20051;-72
2022/10/07 02:53:38;;;;;;;22.77;3.42;;;;;;;;;;5081762;28;20063;-72
2022/10/07 02:56:06;;;;;;;22.02;2.83;;;;;;;;;;5085437;28;20059;-72
2022/10/07 02:58:34;;;;;;;31.42;3.80;;;;;;;;;;5084058;28;20149;-72
2022/10/07 03:01:02;;;;;;;23.15;3.58;;;;;;;;;;5084614;28;20452;-72
2022/10/07 03:03:31;;;;;;;29.65;3.60;;;;;;;;;;5081695;28;20056;-72
2022/10/07 03:05:58;;;;;;;29.42;3.70;;;;;;;;;;5084530;28;20044;-72
2022/10/07 03:08:26;;;;;;;28.50;3.45;;;;;;;;;;5083304;28;20055;-72
2022/10/07 03:10:53;;;;;;;23.52;3.35;;;;;;;;;;5084684;28;20048;-72
2022/10/07 03:13:20;;;;;;;32.17;4.20;;;;;;;;;;5080500;28;20062;-72
2022/10/07 03:15:47;;;;;;;27.90;3.50;;;;;;;;;;5065536;28;20059;-72
2022/10/07 03:18:27;;;;;;;32.53;3.58;;;;;;;;;;5079945;28;20608;-72
2022/10/07 03:20:56;;;;;;;24.35;3.53;;;;;;;;;;5083462;28;20093;-72
2022/10/07 03:23:23;;;;;;;27.10;3.55;;;;;;;;;;5084330;28;20060;-72
2022/10/07 03:25:51;;;;;;;32.72;3.95;;;;;;;;;;5083999;28;20523;-72
2022/10/07 03:28:20;;;;;;;30.15;3.70;;;;;;;;;;5082951;28;20473;-72
2022/10/07 03:30:47;;;;;;;35.28;5.97;;;;;;;;;;5077874;28;20145;-72
2022/10/07 03:33:15;;;;;;;32.00;3.70;;;;;;;;;;5084860;28;20059;-72
2022/10/07 03:35:42;;;;;;;22.70;3.80;;;;;;;;;;5085064;28;20047;-72
2022/10/07 03:38:11;;;;;;;35.10;3.90;;;;;;;;;;5081556;28;20056;-72
2022/10/07 03:40:38;;;;;;;26.88;5.10;;;;;;;;;;5084608;28;20052;-73
2022/10/07 03:43:06;;;;;;;29.30;4.50;;;;;;;;;;5084106;28;20055;-72
2022/10/07 03:45:34;;;;;;;24.13;3.30;;;;;;;;;;5080445;28;20044;-72
2022/10/07 03:48:01;;;;;;;21.38;3.83;;;;;;;;;;5082025;28;20040;-72
2022/10/07 03:50:28;;;;;;;34.65;5.40;;;;;;;;;;5082698;28;20059;-72
2022/10/07 03:52:55;;;;;;;25.73;3.55;;;;;;;;;;5084730;28;20048;-72
2022/10/07 03:55:24;;;;;;;30.48;4.90;;;;;;;;;;5083418;28;20109;-72
2022/10/07 03:57:52;;;;;;;35.78;4.45;;;;;;;;;;5080999;28;20406;-72
2022/10/07 04:00:20;;;;;;;26.25;4.05;;;;;;;;;;5083754;28;20052;-72
2022/10/07 04:02:48;;;;;;;30.33;4.15;;;;;;;;;;5080416;28;20087;-72
2022/10/07 04:05:15;;;;;;;35.03;4.30;;;;;;;;;;5067653;28;20501;-72
2022/10/07 04:07:43;;;;;;;39.05;4.60;;;;;;;;;;5077571;28;20087;-72
2022/10/07 04:10:10;;;;;;;33.72;3.97;;;;;;;;;;5083328;28;20765;-72
2022/10/07 04:12:39;;;;;;;18.00;3.20;;;;;;;;;;5081414;28;20105;-72
2022/10/07 04:15:06;;;;;;;24.90;3.97;;;;;;;;;;5081329;28;20051;-72
2022/10/07 04:17:34;;;;;;;25.80;4.15;;;;;;;;;;5077644;28;20083;-72
2022/10/07 04:20:01;;;;;;;28.98;4.15;;;;;;;;;;5079559;28;20490;-72
2022/10/07 04:22:28;;;;;;;28.77;4.10;;;;;;;;;;5065682;28;20056;-73
2022/10/07 04:27:42;;;;;;;29.23;3.90;;;;;;;;;;5078387;28;20040;-72
2022/10/07 04:30:09;;;;;;;32.42;4.45;;;;;;;;;;5081886;28;20052;-72
2022/10/07 04:32:37;;;;;;;42.63;5.15;;;;;;;;;;5078804;28;20047;-72
2022/10/07 04:35:04;;;;;;;25.83;3.65;;;;;;;;;;5083329;28;20056;-72
2022/10/07 04:37:31;;;;;;;33.13;4.05;;;;;;;;;;5079001;28;20140;-72
2022/10/07 04:39:58;;;;;;;32.53;4.22;;;;;;;;;;5065866;28;20059;-72
2022/10/07 04:45:12;;;;;;;25.88;4.07;;;;;;;;;;5081007;28;20091;-72
2022/10/07 04:47:39;;;;;;;29.10;4.00;;;;;;;;;;5083396;28;20174;-72
2022/10/07 04:50:07;;;;;;;32.58;4.07;;;;;;;;;;5085576;28;20040;-72
2022/10/07 04:52:35;;;;;;;39.83;4.68;;;;;;;;;;5083106;28;20245;-72
2022/10/07 04:55:03;;;;;;;33.30;4.57;;;;;;;;;;5068415;28;20062;-72
2022/10/07 04:57:30;;;;;;;28.95;3.90;;;;;;;;;;5084202;28;20071;-72
2022/10/07 04:59:57;;;;;;;23.48;2.80;;;;;;;;;;5064482;28;20534;-72
2022/10/07 05:02:26;;;;;;;36.10;4.60;;;;;;;;;;5080260;28;20055;-72
2022/10/07 05:04:53;;;;;;;32.35;5.15;;;;;;;;;;5083906;28;20663;-72
2022/10/07 05:07:20;;;;;;;31.65;4.18;;;;;;;;;;5083904;28;20138;-72
2022/10/07 05:09:47;;;;;;;31.00;4.40;;;;;;;;;;5085444;28;20078;-73
2022/10/07 05:12:16;;;;;;;27.17;4.55;;;;;;;;;;5084925;28;20569;-73
2022/10/07 05:14:44;;;;;;;23.55;4.30;;;;;;;;;;5084647;28;20464;-73
2022/10/07 05:17:11;;;;;;;25.70;3.95;;;;;;;;;;5086499;28;20056;-72
2022/10/07 05:19:40;;;;;;;35.10;5.32;;;;;;;;;;5086268;28;20083;-72
2022/10/07 05:22:07;;;;;;;29.67;5.18;;;;;;;;;;5085328;28;20051;-72
2022/10/07 05:24:34;;;;;;;27.17;4.93;;;;;;;;;;5085961;28;20786;-72
2022/10/07 05:27:02;;;;;;;19.48;4.47;;;;;;;;;;5084326;28;20402;-72
2022/10/07 05:29:29;;;;;;;30.42;5.13;;;;;;;;;;5083231;28;20048;-72
2022/10/07 05:31:56;;;;;;;22.80;4.40;;;;;;;;;;5084720;28;20051;-72
2022/10/07 05:34:24;;;;;;;29.77;4.72;;;;;;;;;;5061854;28;20329;-73
2022/10/07 05:36:52;;;;;;;35.50;5.25;;;;;;;;;;5077157;28;20048;-72
2022/10/07 05:39:19;;;;;;;27.88;4.70;;;;;;;;;;5083347;28;20051;-73
2022/10/07 05:41:47;;;;;;;31.20;5.15;;;;;;;;;;5086384;28;20059;-72
2022/10/07 05:44:14;;;;;;;35.40;4.82;;;;;;;;;;5082146;28;20098;-73
2022/10/07 05:46:41;;;;;;;37.85;5.28;;;;;;;;;;5085844;28;20157;-73
2022/10/07 05:49:08;;;;;;;22.65;5.00;;;;;;;;;;5066116;28;20060;-72
2022/10/07 05:51:36;;;;;;;32.92;5.22;;;;;;;;;;5083147;28;20500;-72
2022/10/07 05:54:04;;;;;;;32.83;5.45;;;;;;;;;;5083627;28;20052;-73
2022/10/07 05:56:32;;;;;;;31.77;4.78;;;;;;;;;;5082232;28;20055;-72
2022/10/07 05:58:59;;;;;;;27.52;4.78;;;;;;;;;;5085177;28;20048;-72
2022/10/07 06:01:27;;;;;;;32.90;5.22;;;;;;;;;;5082714;28;20605;-72
2022/10/07 06:03:56;;;;;;;32.25;5.47;;;;;;;;;;5087096;28;20131;-72
2022/10/07 06:06:23;;;;;;;29.25;5.63;;;;;;;;;;5085646;28;20051;-72
2022/10/07 06:08:50;;;;;;;32.10;6.38;;;;;;;;;;5082455;28;20044;-72
2022/10/07 06:14:04;;;;;;;24.30;4.90;;;;;;;;;;5086782;28;20044;-72
2022/10/07 06:16:32;;;;;;;29.05;5.03;;;;;;;;;;5084315;28;20066;-72
2022/10/07 06:18:59;;;;;;;28.08;5.30;;;;;;;;;;5069464;28;20113;-73
2022/10/07 06:21:27;;;;;;;23.33;5.18;;;;;;;;;;5065146;28;20048;-72
2022/10/07 06:23:54;;;;;;;27.45;4.82;;;;;;;;;;5063368;28;20143;-72
2022/10/07 06:26:23;;;;;;;36.00;5.75;;;;;;;;;;5085177;28;20055;-73
2022/10/07 06:28:50;;;;;;;33.15;5.70;;;;;;;;;;5081393;28;20044;-72
2022/10/07 06:31:21;;;;;;;33.17;4.90;;;;;;;;;;5084457;28;20486;-73
2022/10/07 06:33:49;;;;;;;32.67;4.97;;;;;;;;;;5084055;28;20079;-72
2022/10/07 06:36:16;;;;;;;19.98;4.60;;;;;;;;;;5082902;28;20048;-72
2022/10/07 06:38:46;;;;;;;34.42;5.43;;;;;;;;;;5081429;28;20464;-72
2022/10/07 06:41:14;;;;;;;27.55;5.05;;;;;;;;;;5079158;28;20048;-72
2022/10/07 06:43:43;;;;;;;32.03;4.75;;;;;;;;;;5082882;28;20044;-72
2022/10/07 06:46:13;;;;;;;25.77;4.57;;;;;;;;;;5081394;28;20425;-72
2022/10/07 06:48:41;;;;;;;27.73;4.93;;;;;;;;;;5083958;28;20052;-72
2022/10/07 06:51:09;;;;;;;36.67;4.63;;;;;;;;;;5085213;28;20044;-72
2022/10/07 06:53:37;;;;;;;26.00;4.78;;;;;;;;;;5084080;28;20059;-72
2022/10/07 06:56:04;;;;;;;29.25;4.30;;;;;;;;;;5082240;28;20055;-72
2022/10/07 06:58:31;;;;;;;30.67;5.32;;;;;;;;;;5084354;28;20052;-73
2022/10/07 07:01:00;;;;;;;27.58;5.03;;;;;;;;;;5083024;28;20040;-72
2022/10/07 07:03:28;;;;;;;30.33;5.47;;;;;;;;;;5083008;28;20048;-72
2022/10/07 07:05:55;;;;;;;25.58;5.10;;;;;;;;;;5077278;28;20145;-73
2022/10/07 07:08:24;;;;;;;30.92;5.05;;;;;;;;;;5084525;28;20075;-73
2022/10/07 07:10:51;;;;;;;33.53;4.88;;;;;;;;;;5080169;28;20047;-73
2022/10/07 07:13:18;;;;;;;26.23;4.90;;;;;;;;;;5079173;28;20729;-72
2022/10/07 07:15:54;;;;;;;28.60;4.40;;;;;;;;;;5081766;28;20099;-73
2022/10/07 07:18:23;;;;;;;24.55;4.50;;;;;;;;;;5063931;28;20062;-72
2022/10/07 07:20:50;;;;;;;25.88;4.50;;;;;;;;;;5085123;28;20055;-73
2022/10/07 07:23:18;;;;;;;26.73;4.25;;;;;;;;;;5085428;28;20048;-72
2022/10/07 07:25:45;;;;;;;25.52;4.90;;;;;;;;;;5083870;28;20077;-72
2022/10/07 07:28:13;;;;;;;26.35;4.03;;;;;;;;;;5083770;28;20048;-72
2022/10/07 07:30:40;;;;;;;29.27;4.50;;;;;;;;;;5081920;28;20048;-73
2022/10/07 07:33:08;;;;;;;23.20;4.20;;;;;;;;;;5068126;28;20047;-73
2022/10/07 07:35:40;;;;;;;27.63;4.60;;;;;;;;;;5084863;28;20080;-73
2022/10/07 07:38:07;;;;;;;25.65;3.90;;;;;;;;;;5084571;28;20036;-73
2022/10/07 07:40:36;;;;;;;19.98;4.22;;;;;;;;;;5084427;28;20058;-72
2022/10/07 07:43:04;;;;;;;31.80;5.57;;;;;;;;;;5084877;28;20128;-73
2022/10/07 07:45:31;;;;;;;22.77;4.15;;;;;;;;;;5080728;28;20044;-72
2022/10/07 07:47:59;;;;;;;22.92;4.55;;;;;;;;;;5082159;28;20123;-73
2022/10/07 07:50:26;;;;;;;26.52;4.20;;;;;;;;;;5081594;28;20445;-73
2022/10/07 07:52:55;;;;;;;23.23;4.35;;;;;;;;;;5084561;28;20040;-72
2022/10/07 07:55:23;;;;;;;23.23;3.67;;;;;;;;;;5081652;28;20051;-73
2022/10/07 07:57:50;;;;;;;19.42;4.10;;;;;;;;;;5082941;28;20421;-73
2022/10/07 08:00:17;;;;;;;17.10;4.15;;;;;;;;;;5083334;28;20613;-72
2022/10/07 08:02:45;;;;;;;19.73;4.28;;;;;;;;;;5081393;28;20055;-73
2022/10/07 08:05:12;;;;;;;24.42;4.30;;;;;;;;;;5081827;28;20146;-72
2022/10/07 08:07:39;;;;;;;27.70;4.55;;;;;;;;;;5080622;28;20051;-72
2022/10/07 08:10:09;;;;;;;25.80;4.75;;;;;;;;;;5083318;28;20402;-73
2022/10/07 08:12:36;;;;;;;25.52;4.72;;;;;;;;;;5084791;28;20052;-73
2022/10/07 08:15:03;;;;;;;25.40;5.55;;;;;;;;;;5082793;28;20083;-73
2022/10/07 08:17:30;;;;;;;23.27;5.45;;;;;;;;;;5084193;28;20059;-73
2022/10/07 08:19:58;;;;;;;21.67;4.43;;;;;;;;;;5082933;28;20612;-73
2022/10/07 08:22:25;;;;;;;20.00;3.95;;;;;;;;;;5066524;28;20555;-73
2022/10/07 08:24:52;;;;;;;23.02;4.18;;;;;;;;;;5066141;28;20068;-72
2022/10/07 08:27:22;;;;;;;28.40;4.53;;;;;;;;;;5083193;28;20089;-73
2022/10/07 08:29:50;;;;;;;25.60;4.28;;;;;;;;;;5084884;28;20478;-73
2022/10/07 08:32:17;;;;;;;25.25;3.90;;;;;;;;;;5082378;28;20047;-73
2022/10/07 08:34:44;;;;;;;24.67;4.35;;;;;;;;;;5081571;28;20410;-73
2022/10/07 08:37:11;;;;;;;22.92;3.60;;;;;;;;;;5079079;28;20058;-72
2022/10/07 08:39:38;;;;;;;21.90;3.95;;;;;;;;;;5080322;28;20694;-73
2022/10/07 08:42:12;;;;;;;27.70;4.20;;;;;;;;;;5080475;28;20036;-73
2022/10/07 08:44:42;;;;;;;16.75;3.28;;;;;;;;;;5083723;28;20055;-73
2022/10/07 08:47:14;;;;;;;24.50;3.85;;;;;;;;;;5082001;28;20137;-73
2022/10/07 08:49:52;;;;;;;22.25;3.58;;;;;;;;;;5081176;28;20482;-73
2022/10/07 08:52:25;;;;;;;24.48;3.90;;;;;;;;;;5077416;28;20612;-72
2022/10/07 08:54:53;;;;;;;26.40;4.13;;;;;;;;;;5083272;28;20123;-72
2022/10/07 08:57:26;;;;;;;24.20;3.75;;;;;;;;;;5078878;28;20052;-73
2022/10/07 08:59:58;;;;;;;19.23;3.33;;;;;;;;;;5083928;28;20478;-73
2022/10/07 09:02:29;;;;;;;19.45;3.45;;;;;;;;;;5078465;28;20036;-72
2022/10/07 09:04:59;;;;;;;15.45;3.15;;;;;;;;;;5081885;28;20599;-72
2022/10/07 09:07:31;;;;;;;23.13;3.75;;;;;;;;;;5081484;28;20044;-72
2022/10/07 09:10:00;;;;;;;18.77;3.28;;;;;;;;;;5077956;28;20650;-73
2022/10/07 09:12:31;;;;;;;23.33;4.28;;;;;;;;;;5082377;28;20044;-73
2022/10/07 09:15:00;;;;;;;19.92;3.88;;;;;;;;;;5082364;28;20486;-73
2022/10/07 09:17:29;;;;;;;25.63;4.90;;;;;;;;;;5079270;28;20533;-73
2022/10/07 09:19:59;;;;;;;20.33;3.25;;;;;;;;;;5078053;28;20048;-73
2022/10/07 09:22:31;;;;;;;23.58;4.57;;;;;;;;;;5081418;28;20040;-73
2022/10/07 09:25:00;;;;;;;17.23;3.55;;;;;;;;;;5079101;28;20067;-73
2022/10/07 09:27:28;;;;;;;19.42;3.60;;;;;;;;;;5075818;28;20048;-73
2022/10/07 09:29:55;;;;;;;25.17;4.07;;;;;;;;;;5082918;28;20060;-73
2022/10/07 09:32:24;;;;;;;24.67;3.47;;;;;;;;;;5083414;28;20044;-73
2022/10/07 09:34:52;;;;;;;22.45;3.20;;;;;;;;;;5083068;28;20055;-73
2022/10/07 09:37:20;;;;;;;19.67;3.17;;;;;;;;;;5083904;28;20054;-73
2022/10/07 09:39:48;;;;;;;26.00;3.85;;;;;;;;;;5083624;28;20072;-73
2022/10/07 09:42:28;;;;;;;17.63;3.15;;;;;;;;;;5084764;28;20052;-73
2022/10/07 09:44:56;;;;;;;18.10;3.13;;;;;;;;;;5085732;28;20079;-73
2022/10/07 09:47:25;;;;;;;26.98;3.85;;;;;;;;;;5085522;28;20406;-73
2022/10/07 09:49:58;;;;;;;20.52;3.50;;;;;;;;;;5084078;28;20040;-73
2022/10/07 09:52:26;;;;;;;20.67;3.97;;;;;;;;;;5083764;28;20126;-72
2022/10/07 09:54:54;;;;;;;17.33;3.60;;;;;;;;;;5067598;28;20056;-73
2022/10/07 09:57:25;;;;;;;24.27;3.60;;;;;;;;;;5085044;28;20584;-72
2022/10/07 09:59:53;;;;;;;22.45;3.85;;;;;;;;;;5083462;28;20410;-73
2022/10/07 10:02:22;;;;;;;26.48;3.97;;;;;;;;;;5083519;28;20503;-73
2022/10/07 10:04:52;;;;;;;16.65;3.75;;;;;;;;;;5084526;28;20048;-73
2022/10/07 10:07:21;;;;;;;17.73;3.53;;;;;;;;;;5086501;28;20655;-73
2022/10/07 10:09:49;;;;;;;21.33;4.15;;;;;;;;;;5083821;28;20052;-73
2022/10/07 10:12:18;;;;;;;20.90;3.63;;;;;;;;;;5082280;28;20129;-73
2022/10/07 10:14:49;;;;;;;21.35;3.72;;;;;;;;;;5079978;28;20055;-73
2022/10/07 10:17:21;;;;;;;20.45;3.28;;;;;;;;;;5079931;28;20494;-73
2022/10/07 10:19:49;;;;;;;22.65;3.97;;;;;;;;;;5065202;28;20097;-73
2022/10/07 10:22:25;;;;;;;15.10;2.95;;;;;;;;;;5083401;28;20459;-73
2022/10/07 10:27:42;;;;;;;20.23;3.92;;;;;;;;;;5083590;28;20070;-73
2022/10/07 10:30:13;;;;;;;19.67;3.25;;;;;;;;;;5083159;28;20154;-73
2022/10/07 10:32:49;;;;;;;21.15;3.45;;;;;;;;;;5081214;28;20050;-73
2022/10/07 10:35:19;;;;;;;16.15;3.25;;;;;;;;;;5083336;28;20048;-73
2022/10/07 10:37:58;;;;;;;25.40;4.00;;;;;;;;;;5083969;28;20521;-73
2022/10/07 10:40:28;;;;;;;18.67;3.50;;;;;;;;;;5067473;28;20542;-73
2022/10/07 10:42:58;;;;;;;15.80;3.63;;;;;;;;;;5086121;28;20064;-73
2022/10/07 10:45:32;;;;;;;17.58;3.63;;;;;;;;;;5085239;28;20398;-73
2022/10/07 10:48:20;;;;;;;22.13;3.45;;;;;;;;;;5081987;28;20066;-73
2022/10/07 10:50:52;;;;;;;16.02;3.20;;;;;;;;;;5059798;28;20047;-73
2022/10/07 10:53:28;;;;;;;24.02;3.30;;;;;;;;;;5085905;28;20705;-73
2022/10/07 10:56:02;;;;;;;19.85;4.03;;;;;;;;;;5084002;28;20567;-73
2022/10/07 10:58:35;;;;;;;16.77;3.25;;;;;;;;;;5084468;28;20052;-73
2022/10/07 11:01:08;;;;;;;22.00;3.75;;;;;;;;;;5082942;28;20040;-74
2022/10/07 11:03:35;;;;;;;;;;;;;;;;;;5082797;28;20484;-73
2022/10/07 11:06:06;;;;;;;18.20;3.45;;;;;;;;;;5066045;28;19920;-73
2022/10/07 11:08:36;;;;;;;26.08;4.22;;;;;;;;;;5084229;28;20486;-73
2022/10/07 11:11:07;;;;;;;17.38;3.25;;;;;;;;;;5085397;28;20052;-73
2022/10/07 11:13:37;;;;;;;18.45;3.40;;;;;;;;;;5084179;28;20066;-73
2022/10/07 11:16:07;;;;;;;21.13;3.45;;;;;;;;;;5084815;28;20048;-73
2022/10/07 11:18:37;;;;;;;22.55;3.50;;;;;;;;;;5082311;28;20060;-73
2022/10/07 11:21:06;;;;;;;19.50;3.70;;;;;;;;;;5084619;28;20131;-73
2022/10/07 11:23:41;;;;;;;19.52;3.38;;;;;;;;;;5081923;28;20478;-73
2022/10/07 11:26:13;;;;;;;17.08;3.40;;;;;;;;;;5082701;28;20121;-73
2022/10/07 11:28:42;;;;;;;20.95;3.20;;;;;;;;;;5083590;28;20048;-73
2022/10/07 11:31:22;;;;;;;15.73;3.08;;;;;;;;;;5081408;28;20151;-73
2022/10/07 11:33:51;;;;;;;19.02;3.55;;;;;;;;;;5085180;28;20047;-73
2022/10/07 11:36:21;;;;;;;16.02;3.10;;;;;;;;;;5084942;28;20173;-73
2022/10/07 11:38:51;;;;;;;18.92;3.42;;;;;;;;;;5080235;28;20506;-73
2022/10/07 11:41:20;;;;;;;29.75;4.35;;;;;;;;;;5085945;28;20066;-73
2022/10/07 11:43:49;;;;;;;16.77;3.45;;;;;;;;;;5084533;28;20043;-73
2022/10/07 11:46:18;;;;;;;15.50;2.80;;;;;;;;;;5069288;28;20060;-72
2022/10/07 11:48:48;;;;;;;17.70;3.90;;;;;;;;;;5084812;28;20048;-73
2022/10/07 11:51:20;;;;;;;20.33;4.20;;;;;;;;;;5081443;28;20123;-73
2022/10/07 11:53:47;;;;;;;19.85;3.20;;;;;;;;;;5084987;28;20111;-73
2022/10/07 11:56:19;;;;;;;19.40;3.80;;;;;;;;;;5082474;28;20044;-73
2022/10/07 11:58:47;;;;;;;19.38;3.28;;;;;;;;;;5081589;28;20052;-73
2022/10/07 12:01:31;;;;;;;18.45;3.63;;;;;;;;;;5082076;28;20162;-73
2022/10/07 12:03:58;;;;;;;;;;;;;;;;;;5083894;28;20036;-72
2022/10/07 12:06:26;;;;;;;15.93;3.20;;;;;;;;;;5084985;28;19920;-73
2022/10/07 12:08:53;;;;;;;14.90;3.30;;;;;;;;;;5083260;28;20048;-73
2022/10/07 12:11:42;;;;;;;20.20;3.38;;;;;;;;;;5082030;28;20060;-72
2022/10/07 12:14:32;;;;;;;14.23;3.80;;;;;;;;;;5081657;28;20048;-73
2022/10/07 12:17:11;;;;;;;17.40;3.08;;;;;;;;;;5064573;28;20094;-73
2022/10/07 12:19:38;;;;;;;23.60;3.10;;;;;;;;;;5079785;28;20044;-73
2022/10/07 12:22:16;;;;;;;17.90;3.22;;;;;;;;;;5081597;28;20542;-73
2022/10/07 12:24:44;;;;;;;21.52;3.50;;;;;;;;;;5084064;28;20137;-73
2022/10/07 12:27:14;;;;;;;24.15;3.58;;;;;;;;;;5084734;28;20485;-73
2022/10/07 12:29:50;;;;;;;20.20;3.50;;;;;;;;;;5085457;28;20134;-72
2022/10/07 12:32:36;;;;;;;19.80;3.10;;;;;;;;;;5062817;28;20043;-73
2022/10/07 12:35:18;;;;;;;14.55;3.15;;;;;;;;;;5082398;28;20066;-73
2022/10/07 12:37:50;;;;;;;17.95;3.20;;;;;;;;;;5075052;28;20048;-73
2022/10/07 12:40:23;;;;;;;17.42;2.70;;;;;;;;;;5075302;28;20486;-73
2022/10/07 12:42:54;;;;;;;21.80;3.08;;;;;;;;;;5081811;28;20047;-73
2022/10/07 12:45:23;;;;;;;13.57;2.50;;;;;;;;;;5079535;28;20770;-73
2022/10/07 12:47:52;;;;;;;16.73;3.15;;;;;;;;;;5082124;28;20063;-73
2022/10/07 12:50:20;;;;;;;17.60;3.25;;;;;;;;;;5083106;28;20047;-73
2022/10/07 12:52:51;;;;;;;12.43;2.47;;;;;;;;;;5080520;28;20093;-73
2022/10/07 12:55:21;;;;;;;13.18;2.47;;;;;;;;;;5084078;28;20126;-72
2022/10/07 12:57:50;;;;;;;18.33;2.95;;;;;;;;;;5082344;28;20078;-70
2022/10/07 13:00:17;;;;;;;12.35;2.50;;;;;;;;;;5085294;28;20059;-70
2022/10/07 13:03:13;;;;;;;14.45;2.63;;;;;;;;;;5081732;28;20036;-70
2022/10/07 13:05:55;;;;;;;14.73;2.92;;;;;;;;;;5084744;28;20059;-71
2022/10/07 13:08:39;;;;;;;13.98;2.72;;;;;;;;;;5085585;28;20110;-70
2022/10/07 13:11:36;;;;;;;13.90;2.78;;;;;;;;;;5085903;28;20044;-70
2022/10/07 13:14:08;;;;;;;13.23;2.38;;;;;;;;;;5023523;28;20404;-70
2022/10/07 13:16:37;;;;;;;12.20;3.13;;;;;;;;;;5073872;28;20112;-70
2022/10/07 13:19:12;;;;;;;15.50;3.17;;;;;;;;;;5087139;28;20055;-70
2022/10/07 13:21:42;;;;;;;16.50;3.35;;;;;;;;;;5087400;28;20054;-70
2022/10/07 13:24:14;;;;;;;20.38;3.50;;;;;;;;;;5084960;28;20040;-70
2022/10/07 13:26:44;;;;;;;15.50;2.65;;;;;;;;;;5085664;28;20525;-70
2022/10/07 13:29:19;;;;;;;18.67;3.28;;;;;;;;;;5086882;28;20048;-70
2022/10/07 13:32:02;;;;;;;14.68;2.70;;;;;;;;;;5075312;28;20140;-70
2022/10/07 13:34:31;;;;;;;16.48;2.75;;;;;;;;;;5087434;28;20055;-70
2022/10/07 13:36:58;;;;;;;19.33;3.35;;;;;;;;;;5086712;28;20121;-70
2022/10/07 13:39:25;;;;;;;12.70;2.78;;;;;;;;;;5087290;28;20048;-70
2022/10/07 13:41:55;;;;;;;13.98;2.70;;;;;;;;;;5085827;28;20044;-70
2022/10/07 13:44:23;;;;;;;18.15;3.50;;;;;;;;;;5085241;28;20078;-70
2022/10/07 13:46:54;;;;;;;16.05;3.30;;;;;;;;;;5086833;28;20054;-71
2022/10/07 13:49:25;;;;;;;15.90;2.55;;;;;;;;;;5086406;28;20204;-70
2022/10/07 13:51:55;;;;;;;20.60;2.85;;;;;;;;;;5086745;28;20724;-72
2022/10/07 13:54:23;;;;;;;19.25;2.60;;;;;;;;;;5084550;28;20056;-72
2022/10/07 13:56:52;;;;;;;16.98;2.72;;;;;;;;;;5067851;28;20132;-70
2022/10/07 13:59:19;;;;;;;14.07;2.63;;;;;;;;;;5065876;28;20060;-72
2022/10/07 14:01:48;;;;;;;15.30;2.80;;;;;;;;;;5062614;28;20044;-72
2022/10/07 14:04:19;;;;;;;21.65;3.20;;;;;;;;;;5072249;28;20059;-71
2022/10/07 14:06:49;;;;;;;15.30;2.78;;;;;;;;;;5078576;28;20044;-72
2022/10/07 14:09:18;;;;;;;14.07;2.50;;;;;;;;;;5067068;28;20059;-72
2022/10/07 14:11:46;;;;;;;17.02;2.88;;;;;;;;;;5084296;28;20056;-72
2022/10/07 14:14:18;;;;;;;16.75;2.75;;;;;;;;;;5068276;28;20201;-72
2022/10/07 14:16:46;;;;;;;16.98;2.90;;;;;;;;;;5067220;28;20064;-72
2022/10/07 14:19:16;;;;;;;14.70;2.58;;;;;;;;;;5084779;28;20097;-72
2022/10/07 14:21:44;;;;;;;15.10;2.53;;;;;;;;;;5086861;28;21158;-72
2022/10/07 14:24:11;;;;;;;12.68;2.20;;;;;;;;;;5087051;28;20048;-72
2022/10/07 14:26:44;;;;;;;15.90;2.17;;;;;;;;;;5066766;28;20072;-72
2022/10/07 14:29:34;;;;;;;13.10;1.88;;;;;;;;;;5065792;28;20052;-72
2022/10/07 14:37:32;;;;;;;15.65;2.05;;;;;;;;;;5084706;28;20052;-72
2022/10/07 14:39:59;;;;;;;19.13;2.95;;;;;;;;;;5085759;28;20050;-72
2022/10/07 14:42:31;;;;;;;15.80;3.15;;;;;;;;;;5085158;28;20048;-72
2022/10/07 14:44:58;;;;;;;16.40;2.47;;;;;;;;;;5085274;28;20045;-72
2022/10/07 14:47:27;;;;;;;18.90;2.25;;;;;;;;;;5081647;28;20085;-71
2022/10/07 14:49:55;;;;;;;17.85;2.67;;;;;;;;;;5085912;28;20483;-72
2022/10/07 14:52:26;;;;;;;17.65;2.38;;;;;;;;;;5084802;28;20052;-71
2022/10/07 14:54:55;;;;;;;15.32;3.20;;;;;;;;;;5085664;28;20128;-72
2022/10/07 14:57:24;;;;;;;16.08;2.45;;;;;;;;;;5082479;28;20048;-72
2022/10/07 14:59:53;;;;;;;14.93;2.63;;;;;;;;;;5086579;28;20516;-71
2022/10/07 15:02:20;;;;;;;15.73;2.70;;;;;;;;;;5065724;28;20057;-71